sensor_id;sensor_type;location;lat;lon;timestamp;P1;durP1;ratioP1;P2;durP2;ratioP2
54332;SDS011;40230;41.860;21.940;2022-07-23T00:02:57;5.22;;;4.32;;
54332;SDS011;40230;41.860;21.940;2022-07-23T00:05:24;7.15;;;4.97;;
54332;SDS011;40230;41.860;21.940;2022-07-23T00:07:50;6.55;;;4.75;;
54332;SDS011;40230;41.860;21.940;2022-07-23T00:10:16;6.05;;;4.45;;
54332;SDS011;40230;41.860;21.940;2022-07-23T00:12:42;8.30;;;4.63;;
54332;SDS011;40230;41.860;21.940;2022-07-23T00:15:09;7.18;;;4.70;;
54332;SDS011;40230;41.860;21.940;2022-07-23T00:17:35;8.55;;;5.10;;
54332;SDS011;40230;41.860;21.940;2022-07-23T00:20:01;6.80;;;4.90;;
54332;SDS011;40230;41.860;21.940;2022-07-23T00:22:28;7.60;;;4.88;;
54332;SDS011;40230;41.860;21.940;2022-07-23T00:24:54;6.75;;;4.72;;
54332;SDS011;40230;41.860;21.940;2022-07-23T00:27:20;5.57;;;4.45;;
54332;SDS011;40230;41.860;21.940;2022-07-23T00:29:46;7.32;;;4.57;;
54332;SDS011;40230;41.860;21.940;2022-07-23T00:32:12;6.30;;;4.65;;
54332;SDS011;40230;41.860;21.940;2022-07-23T00:34:39;7.30;;;4.97;;
54332;SDS011;40230;41.860;21.940;2022-07-23T00:37:05;6.07;;;4.97;;
54332;SDS011;40230;41.860;21.940;2022-07-23T00:39:31;7.95;;;4.82;;
54332;SDS011;40230;41.860;21.940;2022-07-23T00:41:57;10.00;;;5.40;;
54332;SDS011;40230;41.860;21.940;2022-07-23T00:44:26;7.20;;;5.22;;
54332;SDS011;40230;41.860;21.940;2022-07-23T00:46:56;9.65;;;5.38;;
54332;SDS011;40230;41.860;21.940;2022-07-23T00:49:26;7.35;;;4.85;;
54332;SDS011;40230;41.860;21.940;2022-07-23T00:51:53;7.05;;;4.93;;
54332;SDS011;40230;41.860;21.940;2022-07-23T00:54:21;6.75;;;5.25;;
54332;SDS011;40230;41.860;21.940;2022-07-23T00:56:47;8.38;;;5.50;;
54332;SDS011;40230;41.860;21.940;2022-07-23T00:59:13;6.50;;;5.32;;
54332;SDS011;40230;41.860;21.940;2022-07-23T01:01:40;10.95;;;6.32;;
54332;SDS011;40230;41.860;21.940;2022-07-23T01:04:06;9.93;;;6.70;;
54332;SDS011;40230;41.860;21.940;2022-07-23T01:06:36;10.60;;;6.20;;
54332;SDS011;40230;41.860;21.940;2022-07-23T01:09:03;10.18;;;6.18;;
54332;SDS011;40230;41.860;21.940;2022-07-23T01:11:29;8.68;;;5.63;;
54332;SDS011;40230;41.860;21.940;2022-07-23T01:13:55;6.72;;;5.70;;
54332;SDS011;40230;41.860;21.940;2022-07-23T01:16:21;8.30;;;4.95;;
54332;SDS011;40230;41.860;21.940;2022-07-23T01:18:48;8.60;;;5.40;;
54332;SDS011;40230;41.860;21.940;2022-07-23T01:21:14;10.48;;;5.43;;
54332;SDS011;40230;41.860;21.940;2022-07-23T01:23:43;8.32;;;4.93;;
54332;SDS011;40230;41.860;21.940;2022-07-23T01:26:09;10.35;;;5.60;;
54332;SDS011;40230;41.860;21.940;2022-07-23T01:28:35;7.45;;;5.07;;
54332;SDS011;40230;41.860;21.940;2022-07-23T01:31:02;7.22;;;4.68;;
54332;SDS011;40230;41.860;21.940;2022-07-23T01:33:28;9.73;;;5.70;;
54332;SDS011;40230;41.860;21.940;2022-07-23T01:35:54;7.60;;;5.28;;
54332;SDS011;40230;41.860;21.940;2022-07-23T01:38:20;5.75;;;5.15;;
54332;SDS011;40230;41.860;21.940;2022-07-23T01:40:46;8.20;;;5.15;;
54332;SDS011;40230;41.860;21.940;2022-07-23T01:43:12;7.47;;;6.30;;
54332;SDS011;40230;41.860;21.940;2022-07-23T01:45:38;10.65;;;5.10;;
54332;SDS011;40230;41.860;21.940;2022-07-23T01:48:05;9.38;;;5.43;;
54332;SDS011;40230;41.860;21.940;2022-07-23T01:50:31;9.45;;;5.93;;
54332;SDS011;40230;41.860;21.940;2022-07-23T01:52:57;6.22;;;5.20;;
54332;SDS011;40230;41.860;21.940;2022-07-23T01:55:23;6.78;;;5.60;;
54332;SDS011;40230;41.860;21.940;2022-07-23T01:57:49;8.10;;;5.65;;
54332;SDS011;40230;41.860;21.940;2022-07-23T02:00:15;6.57;;;4.78;;
54332;SDS011;40230;41.860;21.940;2022-07-23T02:02:41;7.97;;;4.78;;
54332;SDS011;40230;41.860;21.940;2022-07-23T02:05:08;5.45;;;4.10;;
54332;SDS011;40230;41.860;21.940;2022-07-23T02:07:34;6.68;;;4.60;;
54332;SDS011;40230;41.860;21.940;2022-07-23T02:10:00;7.07;;;4.45;;
54332;SDS011;40230;41.860;21.940;2022-07-23T02:12:26;7.47;;;4.78;;
54332;SDS011;40230;41.860;21.940;2022-07-23T02:14:52;12.45;;;5.30;;
54332;SDS011;40230;41.860;21.940;2022-07-23T02:17:18;6.00;;;4.32;;
54332;SDS011;40230;41.860;21.940;2022-07-23T02:19:44;6.50;;;4.80;;
54332;SDS011;40230;41.860;21.940;2022-07-23T02:22:10;6.70;;;5.00;;
54332;SDS011;40230;41.860;21.940;2022-07-23T02:24:36;7.32;;;4.93;;
54332;SDS011;40230;41.860;21.940;2022-07-23T02:27:02;7.03;;;5.00;;
54332;SDS011;40230;41.860;21.940;2022-07-23T02:29:29;8.23;;;5.15;;
54332;SDS011;40230;41.860;21.940;2022-07-23T02:31:55;11.77;;;5.72;;
54332;SDS011;40230;41.860;21.940;2022-07-23T02:34:21;8.85;;;5.15;;
54332;SDS011;40230;41.860;21.940;2022-07-23T02:36:47;6.75;;;5.40;;
54332;SDS011;40230;41.860;21.940;2022-07-23T02:39:13;7.90;;;4.57;;
54332;SDS011;40230;41.860;21.940;2022-07-23T02:41:39;6.93;;;5.00;;
54332;SDS011;40230;41.860;21.940;2022-07-23T02:44:05;8.30;;;4.93;;
54332;SDS011;40230;41.860;21.940;2022-07-23T02:46:31;6.88;;;4.90;;
54332;SDS011;40230;41.860;21.940;2022-07-23T02:48:57;5.80;;;4.60;;
54332;SDS011;40230;41.860;21.940;2022-07-23T02:51:23;7.70;;;4.45;;
54332;SDS011;40230;41.860;21.940;2022-07-23T02:53:50;5.95;;;4.68;;
54332;SDS011;40230;41.860;21.940;2022-07-23T02:56:16;7.53;;;5.03;;
54332;SDS011;40230;41.860;21.940;2022-07-23T02:58:42;7.43;;;5.07;;
54332;SDS011;40230;41.860;21.940;2022-07-23T03:01:08;7.25;;;4.85;;
54332;SDS011;40230;41.860;21.940;2022-07-23T03:03:34;5.00;;;4.47;;
54332;SDS011;40230;41.860;21.940;2022-07-23T03:06:00;8.88;;;5.50;;
54332;SDS011;40230;41.860;21.940;2022-07-23T03:08:26;8.98;;;5.40;;
54332;SDS011;40230;41.860;21.940;2022-07-23T03:10:52;7.22;;;5.20;;
54332;SDS011;40230;41.860;21.940;2022-07-23T03:13:18;9.20;;;5.07;;
54332;SDS011;40230;41.860;21.940;2022-07-23T03:15:45;7.70;;;4.95;;
54332;SDS011;40230;41.860;21.940;2022-07-23T03:18:11;5.65;;;5.10;;
54332;SDS011;40230;41.860;21.940;2022-07-23T03:20:37;7.95;;;4.95;;
54332;SDS011;40230;41.860;21.940;2022-07-23T03:23:03;8.93;;;5.22;;
54332;SDS011;40230;41.860;21.940;2022-07-23T03:25:29;8.52;;;6.30;;
54332;SDS011;40230;41.860;21.940;2022-07-23T03:27:55;7.97;;;6.00;;
54332;SDS011;40230;41.860;21.940;2022-07-23T03:30:21;7.30;;;5.28;;
54332;SDS011;40230;41.860;21.940;2022-07-23T03:32:47;6.72;;;5.28;;
54332;SDS011;40230;41.860;21.940;2022-07-23T03:35:13;8.75;;;5.22;;
54332;SDS011;40230;41.860;21.940;2022-07-23T03:37:39;8.07;;;5.93;;
54332;SDS011;40230;41.860;21.940;2022-07-23T03:40:06;14.63;;;6.28;;
54332;SDS011;40230;41.860;21.940;2022-07-23T03:42:32;11.75;;;5.35;;
54332;SDS011;40230;41.860;21.940;2022-07-23T03:44:58;9.40;;;5.25;;
54332;SDS011;40230;41.860;21.940;2022-07-23T03:47:24;14.77;;;5.70;;
54332;SDS011;40230;41.860;21.940;2022-07-23T03:49:50;7.97;;;5.15;;
54332;SDS011;40230;41.860;21.940;2022-07-23T03:52:17;8.88;;;6.13;;
54332;SDS011;40230;41.860;21.940;2022-07-23T03:54:43;9.70;;;5.88;;
54332;SDS011;40230;41.860;21.940;2022-07-23T03:57:09;9.57;;;6.25;;
54332;SDS011;40230;41.860;21.940;2022-07-23T03:59:35;11.30;;;6.88;;
54332;SDS011;40230;41.860;21.940;2022-07-23T04:02:01;7.53;;;5.70;;
54332;SDS011;40230;41.860;21.940;2022-07-23T04:04:27;8.85;;;5.70;;
54332;SDS011;40230;41.860;21.940;2022-07-23T04:06:53;9.45;;;6.72;;
54332;SDS011;40230;41.860;21.940;2022-07-23T04:09:19;8.57;;;6.90;;
54332;SDS011;40230;41.860;21.940;2022-07-23T04:11:45;5.38;;;4.75;;
54332;SDS011;40230;41.860;21.940;2022-07-23T04:14:11;8.43;;;4.90;;
54332;SDS011;40230;41.860;21.940;2022-07-23T04:16:37;6.95;;;6.18;;
54332;SDS011;40230;41.860;21.940;2022-07-23T04:19:04;15.70;;;9.07;;
54332;SDS011;40230;41.860;21.940;2022-07-23T04:21:30;11.05;;;8.50;;
54332;SDS011;40230;41.860;21.940;2022-07-23T04:23:56;8.90;;;5.18;;
54332;SDS011;40230;41.860;21.940;2022-07-23T04:26:22;26.75;;;14.10;;
54332;SDS011;40230;41.860;21.940;2022-07-23T04:28:48;13.35;;;10.55;;
54332;SDS011;40230;41.860;21.940;2022-07-23T04:31:14;9.48;;;6.68;;
54332;SDS011;40230;41.860;21.940;2022-07-23T04:33:40;9.38;;;5.00;;
54332;SDS011;40230;41.860;21.940;2022-07-23T04:36:07;6.05;;;4.97;;
54332;SDS011;40230;41.860;21.940;2022-07-23T04:38:33;5.85;;;5.25;;
54332;SDS011;40230;41.860;21.940;2022-07-23T04:40:59;6.28;;;4.88;;
54332;SDS011;40230;41.860;21.940;2022-07-23T04:43:25;9.32;;;6.85;;
54332;SDS011;40230;41.860;21.940;2022-07-23T04:45:52;9.15;;;7.20;;
54332;SDS011;40230;41.860;21.940;2022-07-23T04:48:18;9.27;;;5.60;;
54332;SDS011;40230;41.860;21.940;2022-07-23T04:50:44;6.95;;;5.40;;
54332;SDS011;40230;41.860;21.940;2022-07-23T04:53:10;21.48;;;16.52;;
54332;SDS011;40230;41.860;21.940;2022-07-23T04:55:36;8.60;;;6.78;;
54332;SDS011;40230;41.860;21.940;2022-07-23T04:58:02;10.82;;;6.38;;
54332;SDS011;40230;41.860;21.940;2022-07-23T05:00:28;17.15;;;10.27;;
54332;SDS011;40230;41.860;21.940;2022-07-23T05:02:54;33.75;;;25.55;;
54332;SDS011;40230;41.860;21.940;2022-07-23T05:05:20;38.25;;;31.25;;
54332;SDS011;40230;41.860;21.940;2022-07-23T05:07:47;34.40;;;27.80;;
54332;SDS011;40230;41.860;21.940;2022-07-23T05:10:13;13.13;;;9.13;;
54332;SDS011;40230;41.860;21.940;2022-07-23T05:12:39;8.25;;;7.05;;
54332;SDS011;40230;41.860;21.940;2022-07-23T05:15:05;7.75;;;5.72;;
54332;SDS011;40230;41.860;21.940;2022-07-23T05:17:31;6.30;;;5.60;;
54332;SDS011;40230;41.860;21.940;2022-07-23T05:19:57;8.93;;;6.40;;
54332;SDS011;40230;41.860;21.940;2022-07-23T05:22:23;8.25;;;5.50;;
54332;SDS011;40230;41.860;21.940;2022-07-23T05:24:49;9.52;;;5.95;;
54332;SDS011;40230;41.860;21.940;2022-07-23T05:27:15;8.40;;;6.30;;
54332;SDS011;40230;41.860;21.940;2022-07-23T05:29:42;18.80;;;9.38;;
54332;SDS011;40230;41.860;21.940;2022-07-23T05:32:08;8.55;;;7.30;;
54332;SDS011;40230;41.860;21.940;2022-07-23T05:34:34;15.40;;;12.00;;
54332;SDS011;40230;41.860;21.940;2022-07-23T05:37:00;14.93;;;11.63;;
54332;SDS011;40230;41.860;21.940;2022-07-23T05:39:26;11.70;;;6.50;;
54332;SDS011;40230;41.860;21.940;2022-07-23T05:41:52;9.98;;;6.75;;
54332;SDS011;40230;41.860;21.940;2022-07-23T05:44:18;17.42;;;13.48;;
54332;SDS011;40230;41.860;21.940;2022-07-23T05:46:46;10.48;;;9.45;;
54332;SDS011;40230;41.860;21.940;2022-07-23T05:49:12;9.18;;;5.72;;
54332;SDS011;40230;41.860;21.940;2022-07-23T05:51:38;9.25;;;6.93;;
54332;SDS011;40230;41.860;21.940;2022-07-23T05:54:04;24.90;;;7.97;;
54332;SDS011;40230;41.860;21.940;2022-07-23T05:56:30;7.00;;;5.30;;
54332;SDS011;40230;41.860;21.940;2022-07-23T05:58:56;9.80;;;5.30;;
54332;SDS011;40230;41.860;21.940;2022-07-23T06:01:22;8.80;;;5.35;;
54332;SDS011;40230;41.860;21.940;2022-07-23T06:03:48;6.45;;;5.03;;
54332;SDS011;40230;41.860;21.940;2022-07-23T06:06:14;7.32;;;5.80;;
54332;SDS011;40230;41.860;21.940;2022-07-23T06:08:41;9.93;;;8.15;;
54332;SDS011;40230;41.860;21.940;2022-07-23T06:11:07;13.77;;;8.48;;
54332;SDS011;40230;41.860;21.940;2022-07-23T06:13:33;7.80;;;6.18;;
54332;SDS011;40230;41.860;21.940;2022-07-23T06:15:59;6.43;;;5.20;;
54332;SDS011;40230;41.860;21.940;2022-07-23T06:18:25;10.77;;;5.05;;
54332;SDS011;40230;41.860;21.940;2022-07-23T06:20:51;7.07;;;5.40;;
54332;SDS011;40230;41.860;21.940;2022-07-23T06:23:17;7.65;;;4.47;;
54332;SDS011;40230;41.860;21.940;2022-07-23T06:25:43;6.80;;;4.80;;
54332;SDS011;40230;41.860;21.940;2022-07-23T06:28:09;5.97;;;5.18;;
54332;SDS011;40230;41.860;21.940;2022-07-23T06:30:35;7.95;;;6.25;;
54332;SDS011;40230;41.860;21.940;2022-07-23T06:33:02;16.92;;;13.68;;
54332;SDS011;40230;41.860;21.940;2022-07-23T06:35:28;8.13;;;7.32;;
54332;SDS011;40230;41.860;21.940;2022-07-23T06:37:54;6.18;;;5.50;;
54332;SDS011;40230;41.860;21.940;2022-07-23T06:40:21;7.88;;;5.18;;
54332;SDS011;40230;41.860;21.940;2022-07-23T06:42:50;7.20;;;5.00;;
54332;SDS011;40230;41.860;21.940;2022-07-23T06:45:16;5.43;;;4.85;;
54332;SDS011;40230;41.860;21.940;2022-07-23T06:47:43;19.17;;;17.23;;
54332;SDS011;40230;41.860;21.940;2022-07-23T06:50:09;12.65;;;7.38;;
54332;SDS011;40230;41.860;21.940;2022-07-23T06:52:35;8.15;;;5.85;;
54332;SDS011;40230;41.860;21.940;2022-07-23T06:55:02;9.50;;;5.07;;
54332;SDS011;40230;41.860;21.940;2022-07-23T06:57:28;11.50;;;7.40;;
54332;SDS011;40230;41.860;21.940;2022-07-23T06:59:54;7.90;;;5.00;;
54332;SDS011;40230;41.860;21.940;2022-07-23T07:02:20;7.72;;;5.43;;
54332;SDS011;40230;41.860;21.940;2022-07-23T07:04:46;7.72;;;5.28;;
54332;SDS011;40230;41.860;21.940;2022-07-23T07:07:12;19.20;;;17.23;;
54332;SDS011;40230;41.860;21.940;2022-07-23T07:09:38;11.13;;;10.00;;
54332;SDS011;40230;41.860;21.940;2022-07-23T07:12:04;8.90;;;5.82;;
54332;SDS011;40230;41.860;21.940;2022-07-23T07:14:31;7.65;;;5.72;;
54332;SDS011;40230;41.860;21.940;2022-07-23T07:16:57;7.20;;;5.35;;
54332;SDS011;40230;41.860;21.940;2022-07-23T07:19:23;7.47;;;6.50;;
54332;SDS011;40230;41.860;21.940;2022-07-23T07:21:49;8.68;;;5.45;;
54332;SDS011;40230;41.860;21.940;2022-07-23T07:24:15;7.47;;;5.60;;
54332;SDS011;40230;41.860;21.940;2022-07-23T07:26:41;6.78;;;5.68;;
54332;SDS011;40230;41.860;21.940;2022-07-23T07:29:07;6.55;;;4.82;;
54332;SDS011;40230;41.860;21.940;2022-07-23T07:31:33;8.38;;;4.88;;
54332;SDS011;40230;41.860;21.940;2022-07-23T07:33:59;10.52;;;5.63;;
54332;SDS011;40230;41.860;21.940;2022-07-23T07:36:26;5.93;;;4.78;;
54332;SDS011;40230;41.860;21.940;2022-07-23T07:38:52;7.30;;;4.97;;
54332;SDS011;40230;41.860;21.940;2022-07-23T07:41:18;19.83;;;17.77;;
54332;SDS011;40230;41.860;21.940;2022-07-23T07:43:48;17.35;;;14.38;;
54332;SDS011;40230;41.860;21.940;2022-07-23T07:46:15;10.48;;;7.13;;
54332;SDS011;40230;41.860;21.940;2022-07-23T07:48:41;8.52;;;5.95;;
54332;SDS011;40230;41.860;21.940;2022-07-23T07:51:07;9.32;;;5.32;;
54332;SDS011;40230;41.860;21.940;2022-07-23T07:53:33;8.68;;;6.28;;
54332;SDS011;40230;41.860;21.940;2022-07-23T07:55:59;9.13;;;5.15;;
54332;SDS011;40230;41.860;21.940;2022-07-23T07:58:25;8.10;;;4.88;;
54332;SDS011;40230;41.860;21.940;2022-07-23T08:00:51;9.68;;;6.72;;
54332;SDS011;40230;41.860;21.940;2022-07-23T08:03:17;7.53;;;5.32;;
54332;SDS011;40230;41.860;21.940;2022-07-23T08:05:44;7.75;;;5.18;;
54332;SDS011;40230;41.860;21.940;2022-07-23T08:08:10;10.43;;;5.22;;
54332;SDS011;40230;41.860;21.940;2022-07-23T08:10:39;14.77;;;6.45;;
54332;SDS011;40230;41.860;21.940;2022-07-23T08:13:06;7.30;;;5.35;;
54332;SDS011;40230;41.860;21.940;2022-07-23T08:15:32;10.35;;;5.32;;
54332;SDS011;40230;41.860;21.940;2022-07-23T08:17:58;7.55;;;4.70;;
54332;SDS011;40230;41.860;21.940;2022-07-23T08:20:25;7.70;;;4.57;;
54332;SDS011;40230;41.860;21.940;2022-07-23T08:22:52;5.82;;;4.60;;
54332;SDS011;40230;41.860;21.940;2022-07-23T08:25:23;5.57;;;5.03;;
54332;SDS011;40230;41.860;21.940;2022-07-23T08:27:49;5.38;;;4.30;;
54332;SDS011;40230;41.860;21.940;2022-07-23T08:30:16;7.32;;;5.22;;
54332;SDS011;40230;41.860;21.940;2022-07-23T08:32:49;12.55;;;5.30;;
54332;SDS011;40230;41.860;21.940;2022-07-23T08:35:23;7.30;;;5.15;;
54332;SDS011;40230;41.860;21.940;2022-07-23T08:40:15;8.15;;;5.15;;
54332;SDS011;40230;41.860;21.940;2022-07-23T08:42:41;6.03;;;4.70;;
54332;SDS011;40230;41.860;21.940;2022-07-23T08:45:08;6.93;;;5.40;;
54332;SDS011;40230;41.860;21.940;2022-07-23T08:47:36;5.10;;;4.25;;
54332;SDS011;40230;41.860;21.940;2022-07-23T08:50:03;6.50;;;5.15;;
54332;SDS011;40230;41.860;21.940;2022-07-23T08:52:32;6.05;;;5.30;;
54332;SDS011;40230;41.860;21.940;2022-07-23T08:54:59;7.82;;;4.75;;
54332;SDS011;40230;41.860;21.940;2022-07-23T08:57:25;5.47;;;4.72;;
54332;SDS011;40230;41.860;21.940;2022-07-23T08:59:51;5.93;;;4.40;;
54332;SDS011;40230;41.860;21.940;2022-07-23T09:02:18;6.50;;;5.05;;
54332;SDS011;40230;41.860;21.940;2022-07-23T09:04:44;5.45;;;4.18;;
54332;SDS011;40230;41.860;21.940;2022-07-23T09:07:10;8.20;;;5.35;;
54332;SDS011;40230;41.860;21.940;2022-07-23T09:09:36;6.95;;;4.35;;
54332;SDS011;40230;41.860;21.940;2022-07-23T09:12:06;7.43;;;5.65;;
54332;SDS011;40230;41.860;21.940;2022-07-23T09:17:17;16.75;;;15.18;;
54332;SDS011;40230;41.860;21.940;2022-07-23T09:19:44;9.27;;;6.85;;
54332;SDS011;40230;41.860;21.940;2022-07-23T09:22:20;7.50;;;5.22;;
54332;SDS011;40230;41.860;21.940;2022-07-23T09:25:06;5.45;;;4.30;;
54332;SDS011;40230;41.860;21.940;2022-07-23T09:27:50;6.88;;;4.30;;
54332;SDS011;40230;41.860;21.940;2022-07-23T09:30:17;7.03;;;4.72;;
54332;SDS011;40230;41.860;21.940;2022-07-23T09:32:43;7.43;;;5.28;;
54332;SDS011;40230;41.860;21.940;2022-07-23T09:35:10;7.20;;;4.75;;
54332;SDS011;40230;41.860;21.940;2022-07-23T09:37:36;7.03;;;4.60;;
54332;SDS011;40230;41.860;21.940;2022-07-23T09:40:06;7.25;;;4.85;;
54332;SDS011;40230;41.860;21.940;2022-07-23T09:42:32;5.57;;;4.70;;
54332;SDS011;40230;41.860;21.940;2022-07-23T09:44:59;6.25;;;4.10;;
54332;SDS011;40230;41.860;21.940;2022-07-23T09:47:28;6.13;;;4.80;;
54332;SDS011;40230;41.860;21.940;2022-07-23T09:49:59;6.15;;;4.90;;
54332;SDS011;40230;41.860;21.940;2022-07-23T09:52:26;7.47;;;4.82;;
54332;SDS011;40230;41.860;21.940;2022-07-23T09:54:57;4.43;;;4.03;;
54332;SDS011;40230;41.860;21.940;2022-07-23T09:57:24;6.72;;;4.47;;
54332;SDS011;40230;41.860;21.940;2022-07-23T09:59:51;7.95;;;5.07;;
54332;SDS011;40230;41.860;21.940;2022-07-23T10:02:18;7.47;;;4.78;;
54332;SDS011;40230;41.860;21.940;2022-07-23T10:04:45;9.90;;;4.90;;
54332;SDS011;40230;41.860;21.940;2022-07-23T10:07:11;7.97;;;5.03;;
54332;SDS011;40230;41.860;21.940;2022-07-23T10:09:40;6.10;;;4.63;;
54332;SDS011;40230;41.860;21.940;2022-07-23T10:12:10;5.93;;;4.85;;
54332;SDS011;40230;41.860;21.940;2022-07-23T10:14:44;8.20;;;6.32;;
54332;SDS011;40230;41.860;21.940;2022-07-23T10:17:13;6.60;;;4.28;;
54332;SDS011;40230;41.860;21.940;2022-07-23T10:19:40;5.70;;;4.55;;
54332;SDS011;40230;41.860;21.940;2022-07-23T10:22:07;6.18;;;4.53;;
54332;SDS011;40230;41.860;21.940;2022-07-23T10:34:55;7.63;;;4.82;;
54332;SDS011;40230;41.860;21.940;2022-07-23T10:42:35;6.13;;;4.65;;
54332;SDS011;40230;41.860;21.940;2022-07-23T10:45:02;5.30;;;4.20;;
54332;SDS011;40230;41.860;21.940;2022-07-23T10:47:47;6.63;;;4.28;;
54332;SDS011;40230;41.860;21.940;2022-07-23T10:50:28;8.48;;;4.70;;
54332;SDS011;40230;41.860;21.940;2022-07-23T10:55:51;7.72;;;4.70;;
54332;SDS011;40230;41.860;21.940;2022-07-23T11:01:08;8.20;;;4.60;;
54332;SDS011;40230;41.860;21.940;2022-07-23T11:03:55;8.23;;;5.03;;
54332;SDS011;40230;41.860;21.940;2022-07-23T11:06:23;7.20;;;4.75;;
54332;SDS011;40230;41.860;21.940;2022-07-23T11:09:03;9.90;;;5.38;;
54332;SDS011;40230;41.860;21.940;2022-07-23T11:11:35;10.40;;;5.15;;
54332;SDS011;40230;41.860;21.940;2022-07-23T11:14:01;9.35;;;4.57;;
54332;SDS011;40230;41.860;21.940;2022-07-23T11:16:27;6.47;;;5.72;;
54332;SDS011;40230;41.860;21.940;2022-07-23T11:18:54;5.80;;;4.47;;
54332;SDS011;40230;41.860;21.940;2022-07-23T11:34:43;8.30;;;4.57;;
54332;SDS011;40230;41.860;21.940;2022-07-23T11:37:12;7.60;;;3.72;;
54332;SDS011;40230;41.860;21.940;2022-07-23T11:39:38;9.07;;;4.03;;
54332;SDS011;40230;41.860;21.940;2022-07-23T11:42:05;7.25;;;4.30;;
54332;SDS011;40230;41.860;21.940;2022-07-23T11:44:33;12.15;;;5.07;;
54332;SDS011;40230;41.860;21.940;2022-07-23T11:47:00;6.88;;;4.30;;
54332;SDS011;40230;41.860;21.940;2022-07-23T11:49:27;7.43;;;3.95;;
54332;SDS011;40230;41.860;21.940;2022-07-23T11:52:02;7.60;;;4.38;;
54332;SDS011;40230;41.860;21.940;2022-07-23T11:54:33;6.30;;;4.20;;
54332;SDS011;40230;41.860;21.940;2022-07-23T11:56:59;8.50;;;4.00;;
54332;SDS011;40230;41.860;21.940;2022-07-23T11:59:26;8.65;;;4.00;;
54332;SDS011;40230;41.860;21.940;2022-07-23T12:01:59;4.85;;;3.70;;
54332;SDS011;40230;41.860;21.940;2022-07-23T12:07:04;7.47;;;4.53;;
54332;SDS011;40230;41.860;21.940;2022-07-23T12:09:33;9.95;;;4.50;;
54332;SDS011;40230;41.860;21.940;2022-07-23T12:12:00;5.35;;;4.28;;
54332;SDS011;40230;41.860;21.940;2022-07-23T12:14:26;7.68;;;4.22;;
54332;SDS011;40230;41.860;21.940;2022-07-23T12:17:08;8.10;;;4.47;;
54332;SDS011;40230;41.860;21.940;2022-07-23T12:19:34;8.68;;;4.10;;
54332;SDS011;40230;41.860;21.940;2022-07-23T12:22:01;8.88;;;4.38;;
54332;SDS011;40230;41.860;21.940;2022-07-23T12:24:27;8.48;;;4.45;;
54332;SDS011;40230;41.860;21.940;2022-07-23T12:29:38;11.43;;;5.10;;
54332;SDS011;40230;41.860;21.940;2022-07-23T12:35:06;9.75;;;4.63;;
54332;SDS011;40230;41.860;21.940;2022-07-23T12:39:58;7.32;;;4.65;;
54332;SDS011;40230;41.860;21.940;2022-07-23T12:42:24;9.20;;;4.88;;
54332;SDS011;40230;41.860;21.940;2022-07-23T12:45:06;8.02;;;4.60;;
54332;SDS011;40230;41.860;21.940;2022-07-23T12:55:48;10.35;;;5.05;;
54332;SDS011;40230;41.860;21.940;2022-07-23T12:58:19;8.25;;;3.75;;
54332;SDS011;40230;41.860;21.940;2022-07-23T13:00:49;7.57;;;4.32;;
54332;SDS011;40230;41.860;21.940;2022-07-23T13:03:25;7.53;;;4.18;;
54332;SDS011;40230;41.860;21.940;2022-07-23T13:05:52;11.55;;;4.40;;
54332;SDS011;40230;41.860;21.940;2022-07-23T13:08:18;7.57;;;4.75;;
54332;SDS011;40230;41.860;21.940;2022-07-23T13:10:44;10.95;;;4.47;;
54332;SDS011;40230;41.860;21.940;2022-07-23T13:13:16;8.68;;;4.20;;
54332;SDS011;40230;41.860;21.940;2022-07-23T13:15:42;8.98;;;4.45;;
54332;SDS011;40230;41.860;21.940;2022-07-23T13:18:09;7.53;;;3.70;;
54332;SDS011;40230;41.860;21.940;2022-07-23T13:20:35;9.25;;;4.68;;
54332;SDS011;40230;41.860;21.940;2022-07-23T13:23:03;6.65;;;4.15;;
54332;SDS011;40230;41.860;21.940;2022-07-23T13:25:29;7.55;;;4.20;;
54332;SDS011;40230;41.860;21.940;2022-07-23T13:27:55;6.75;;;4.03;;
54332;SDS011;40230;41.860;21.940;2022-07-23T13:30:21;7.30;;;4.03;;
54332;SDS011;40230;41.860;21.940;2022-07-23T13:32:48;6.47;;;4.05;;
54332;SDS011;40230;41.860;21.940;2022-07-23T13:35:14;15.05;;;5.43;;
54332;SDS011;40230;41.860;21.940;2022-07-23T13:37:40;7.25;;;3.80;;
54332;SDS011;40230;41.860;21.940;2022-07-23T13:40:06;11.30;;;5.13;;
54332;SDS011;40230;41.860;21.940;2022-07-23T13:42:33;8.98;;;4.28;;
54332;SDS011;40230;41.860;21.940;2022-07-23T13:44:59;10.23;;;4.32;;
54332;SDS011;40230;41.860;21.940;2022-07-23T13:47:25;10.35;;;4.05;;
54332;SDS011;40230;41.860;21.940;2022-07-23T13:49:51;8.80;;;3.90;;
54332;SDS011;40230;41.860;21.940;2022-07-23T13:52:17;8.60;;;4.10;;
54332;SDS011;40230;41.860;21.940;2022-07-23T13:54:43;8.63;;;4.15;;
54332;SDS011;40230;41.860;21.940;2022-07-23T13:57:09;7.90;;;3.78;;
54332;SDS011;40230;41.860;21.940;2022-07-23T13:59:35;7.20;;;3.90;;
54332;SDS011;40230;41.860;21.940;2022-07-23T14:02:02;11.35;;;4.47;;
54332;SDS011;40230;41.860;21.940;2022-07-23T14:04:28;8.95;;;5.00;;
54332;SDS011;40230;41.860;21.940;2022-07-23T14:06:55;3.92;;;3.47;;
54332;SDS011;40230;41.860;21.940;2022-07-23T14:09:21;7.60;;;4.47;;
54332;SDS011;40230;41.860;21.940;2022-07-23T14:11:48;9.48;;;6.85;;
54332;SDS011;40230;41.860;21.940;2022-07-23T14:14:15;11.10;;;4.82;;
54332;SDS011;40230;41.860;21.940;2022-07-23T14:16:42;7.00;;;4.05;;
54332;SDS011;40230;41.860;21.940;2022-07-23T14:19:08;8.02;;;4.05;;
54332;SDS011;40230;41.860;21.940;2022-07-23T14:21:35;8.95;;;3.55;;
54332;SDS011;40230;41.860;21.940;2022-07-23T14:24:01;8.65;;;4.45;;
54332;SDS011;40230;41.860;21.940;2022-07-23T14:26:28;7.68;;;4.10;;
54332;SDS011;40230;41.860;21.940;2022-07-23T14:28:54;8.77;;;3.80;;
54332;SDS011;40230;41.860;21.940;2022-07-23T14:31:20;9.35;;;4.53;;
54332;SDS011;40230;41.860;21.940;2022-07-23T14:33:46;6.97;;;3.60;;
54332;SDS011;40230;41.860;21.940;2022-07-23T14:36:12;9.10;;;4.00;;
54332;SDS011;40230;41.860;21.940;2022-07-23T14:38:38;6.78;;;3.80;;
54332;SDS011;40230;41.860;21.940;2022-07-23T14:41:04;6.90;;;3.83;;
54332;SDS011;40230;41.860;21.940;2022-07-23T14:43:33;5.78;;;3.58;;
54332;SDS011;40230;41.860;21.940;2022-07-23T14:45:59;7.72;;;3.80;;
54332;SDS011;40230;41.860;21.940;2022-07-23T14:48:25;8.23;;;4.28;;
54332;SDS011;40230;41.860;21.940;2022-07-23T14:50:51;10.50;;;3.92;;
54332;SDS011;40230;41.860;21.940;2022-07-23T14:53:17;8.35;;;3.10;;
54332;SDS011;40230;41.860;21.940;2022-07-23T14:55:43;7.18;;;3.60;;
54332;SDS011;40230;41.860;21.940;2022-07-23T14:58:09;9.55;;;3.72;;
54332;SDS011;40230;41.860;21.940;2022-07-23T15:00:36;7.80;;;3.58;;
54332;SDS011;40230;41.860;21.940;2022-07-23T15:03:02;9.57;;;3.83;;
54332;SDS011;40230;41.860;21.940;2022-07-23T15:05:28;5.85;;;3.85;;
54332;SDS011;40230;41.860;21.940;2022-07-23T15:07:55;5.68;;;3.72;;
54332;SDS011;40230;41.860;21.940;2022-07-23T15:10:22;10.80;;;5.00;;
54332;SDS011;40230;41.860;21.940;2022-07-23T15:12:48;5.25;;;3.08;;
54332;SDS011;40230;41.860;21.940;2022-07-23T15:15:14;8.77;;;3.63;;
54332;SDS011;40230;41.860;21.940;2022-07-23T15:17:40;7.72;;;4.00;;
54332;SDS011;40230;41.860;21.940;2022-07-23T15:20:07;10.13;;;4.75;;
54332;SDS011;40230;41.860;21.940;2022-07-23T15:22:33;8.13;;;3.92;;
54332;SDS011;40230;41.860;21.940;2022-07-23T15:24:59;9.27;;;4.03;;
54332;SDS011;40230;41.860;21.940;2022-07-23T15:27:25;8.63;;;4.53;;
54332;SDS011;40230;41.860;21.940;2022-07-23T15:29:52;9.02;;;4.85;;